Time;durP1;ratioP1;P1;durP2;ratioP2;P2;SDS_P1;SDS_P2;PMS_P1;PMS_P2;Temp;Humidity;BMP_temperature;BMP_pressure;BME280_temperature;BME280_humidity;BME280_pressure;Samples;Min_cycle;Max_cycle;Signal;HPM_P1;HPM_P2
2019/07/29 00:00:00;;;;;;;1.9;0.7;;;;;;;18.18;86.80762;931.9128;;;;
2019/07/29 00:03:18;;;;;;;1.4;0.4;;;;;;;17.89;87.80859;931.9903;;;;
2019/07/29 00:06:33;;;;;;;1.8;0.4;;;;;;;18.02;87.27637;932.0204;;;;
2019/07/29 00:09:55;;;;;;;1.5;0.4;;;;;;;18.06;87.39063;932.0443;;;;
2019/07/29 00:13:11;;;;;;;2.5;0.7;;;;;;;18.04;86.75781;932.0524;;;;
2019/07/29 00:16:27;;;;;;;2.1;0.5;;;;;;;18.07;86.96191;932.0353;;;;
2019/07/29 00:19:43;;;;;;;3.3;0.7;;;;;;;18.08;86.85742;932.0809;;;;
2019/07/29 00:22:57;;;;;;;1.5;0.6;;;;;;;18.08;86.5918;932.1275;;;;
2019/07/29 00:26:13;;;;;;;1.2;0.5;;;;;;;18.06;86.33301;932.1216;;;;
2019/07/29 00:29:30;;;;;;;1.1;0.4;;;;;;;18.1;86.27051;932.2067;;;;
2019/07/29 00:32:48;;;;;;;3.6;0.5;;;;;;;18.13;85.83398;932.1639;;;;
2019/07/29 00:36:05;;;;;;;4;1;;;;;;;18.13;86.3457;932.267;;;;
2019/07/29 00:39:20;;;;;;;0.6;0.3;;;;;;;17.95;86.58887;932.2825;;;;
2019/07/29 00:42:37;;;;;;;3.6;0.5;;;;;;;17.85;87.30273;932.3474;;;;
2019/07/29 00:45:52;;;;;;;1.4;0.8;;;;;;;17.94;86.92383;932.2974;;;;
2019/07/29 00:49:11;;;;;;;3.3;0.6;;;;;;;18.02;85.92969;932.3337;;;;
2019/07/29 00:52:25;;;;;;;1.4;0.7;;;;;;;17.94;86.95996;932.3865;;;;
2019/07/29 00:55:42;;;;;;;2.7;0.6;;;;;;;17.77;87.88965;932.3532;;;;
2019/07/29 00:58:58;;;;;;;1.8;0.5;;;;;;;18.01;86.92676;932.3695;;;;
2019/07/29 01:02:30;;;;;;;2.7;0.3;;;;;;;17.89;87.32129;932.3848;;;;
2019/07/29 01:05:55;;;;;;;2;0.4;;;;;;;17.84;87.45117;932.3959;;;;
2019/07/29 01:09:09;;;;;;;2.1;0.6;;;;;;;17.82;86.71484;932.4119;;;;
2019/07/29 01:12:32;;;;;;;1.5;0.6;;;;;;;17.59;88.10742;932.3472;;;;
2019/07/29 01:15:48;;;;;;;1.6;0.6;;;;;;;17.75;86.88672;932.3484;;;;
2019/07/29 01:19:06;;;;;;;1.8;0.4;;;;;;;17.85;86.39648;932.4246;;;;
2019/07/29 01:22:33;;;;;;;1.3;0.4;;;;;;;17.85;86.70898;932.3563;;;;
2019/07/29 01:25:55;;;;;;;2.7;0.5;;;;;;;17.66;88.10059;932.3463;;;;
2019/07/29 01:29:13;;;;;;;2.3;0.4;;;;;;;17.83;87.16895;932.4445;;;;
2019/07/29 01:32:32;;;;;;;4.9;0.4;;;;;;;17.75;86.96777;932.3741;;;;
2019/07/29 01:35:50;;;;;;;1.7;0.3;;;;;;;17.77;87.59961;932.3532;;;;
2019/07/29 01:39:05;;;;;;;1;0.4;;;;;;;17.82;87.29492;932.2483;;;;
2019/07/29 01:42:38;;;;;;;3.2;0.9;;;;;;;17.86;86.83789;932.3423;;;;
2019/07/29 01:45:53;;;;;;;2.4;0.5;;;;;;;17.79;86.87207;932.2957;;;;
2019/07/29 01:49:10;;;;;;;2.5;0.8;;;;;;;17.68;87.2666;932.302;;;;
2019/07/29 01:52:36;;;;;;;2.4;0.5;;;;;;;17.74;86.86133;932.3444;;;;
2019/07/29 01:55:53;;;;;;;3.2;0.4;;;;;;;17.72;87.07617;932.2751;;;;
2019/07/29 01:59:09;;;;;;;3.4;0.4;;;;;;;17.77;86.90137;932.272;;;;
2019/07/29 02:02:33;;;;;;;1.4;0.5;;;;;;;17.45;87.63965;932.2584;;;;
2019/07/29 02:05:55;;;;;;;1;0.3;;;;;;;17.68;87.09277;932.2932;;;;
2019/07/29 02:09:14;;;;;;;3.5;0.3;;;;;;;17.75;86.8418;932.2958;;;;
2019/07/29 02:12:30;;;;;;;2.4;0.4;;;;;;;17.64;86.95801;932.2205;;;;
2019/07/29 02:15:46;;;;;;;1.6;0.3;;;;;;;17.53;87.38867;932.2433;;;;
2019/07/29 02:19:00;;;;;;;2.5;0.4;;;;;;;17.49;87.94824;932.2573;;;;
2019/07/29 02:22:22;;;;;;;2.5;0.4;;;;;;;17.37;88.0752;932.3117;;;;
2019/07/29 02:25:37;;;;;;;2;0.3;;;;;;;17.43;87.62402;932.3942;;;;
2019/07/29 02:28:52;;;;;;;3.3;0.4;;;;;;;17.61;87.61426;932.3223;;;;
2019/07/29 02:32:27;;;;;;;5.5;0.5;;;;;;;17.6;86.49609;932.3205;;;;
2019/07/29 02:35:42;;;;;;;2.3;0.4;;;;;;;17.43;88.08789;932.3209;;;;
2019/07/29 02:38:58;;;;;;;3.9;0.9;;;;;;;17.53;86.71582;932.3117;;;;
2019/07/29 02:42:15;;;;;;;4.3;0.4;;;;;;;17.5;87.26758;932.402;;;;
2019/07/29 02:45:30;;;;;;;2.3;0.5;;;;;;;17.52;87.61914;932.4336;;;;
2019/07/29 02:48:45;;;;;;;3.2;0.5;;;;;;;17.58;87.41113;932.4037;;;;
2019/07/29 02:52:04;;;;;;;2.3;0.8;;;;;;;17.5;86.57129;932.2731;;;;
2019/07/29 02:55:20;;;;;;;2.1;0.6;;;;;;;17.47;87.25977;932.4278;;;;
2019/07/29 02:58:34;;;;;;;2.5;0.4;;;;;;;17.25;87.80859;932.4091;;;;
2019/07/29 03:01:58;;;;;;;1.9;0.5;;;;;;;17.19;88.75781;932.4336;;;;
2019/07/29 03:05:22;;;;;;;1.8;0.6;;;;;;;17.29;88.66016;932.4554;;;;
2019/07/29 03:08:45;;;;;;;2.6;0.5;;;;;;;17.28;88.93848;932.4655;;;;
2019/07/29 03:12:01;;;;;;;2.4;0.8;;;;;;;17.48;87.85547;932.4515;;;;
2019/07/29 03:15:16;;;;;;;4.8;0.9;;;;;;;17.43;87.89063;932.5229;;;;
2019/07/29 03:18:34;;;;;;;3.5;0.7;;;;;;;17.49;88.05273;932.5317;;;;
2019/07/29 03:21:54;;;;;;;1.7;0.6;;;;;;;17.37;88.37695;932.5306;;;;
2019/07/29 03:25:13;;;;;;;2.5;0.5;;;;;;;17.37;88.26074;932.603;;;;
2019/07/29 03:28:31;;;;;;;2;0.4;;;;;;;17.45;87.73242;932.5804;;;;
2019/07/29 03:31:46;;;;;;;1.6;0.5;;;;;;;17.5;88.28809;932.6595;;;;
2019/07/29 03:35:09;;;;;;;3;0.5;;;;;;;17.5;87.48633;932.72;;;;
2019/07/29 03:38:24;;;;;;;2.7;0.7;;;;;;;17.5;87.09375;932.7111;;;;
2019/07/29 03:41:44;;;;;;;1.7;0.7;;;;;;;17.54;86.93848;932.8259;;;;
2019/07/29 03:45:04;;;;;;;2.4;0.5;;;;;;;17.51;87.09473;932.7745;;;;
2019/07/29 03:48:22;;;;;;;2.8;0.6;;;;;;;17.55;87.20703;932.7942;;;;
2019/07/29 03:51:43;;;;;;;3.7;0.6;;;;;;;17.48;87.41504;932.7864;;;;
2019/07/29 03:54:59;;;;;;;3.5;0.5;;;;;;;17.39;87.38281;932.8972;;;;
2019/07/29 03:58:17;;;;;;;1.7;0.4;;;;;;;17.37;87.14746;933.0022;;;;
2019/07/29 04:06:16;;;;;;;3.8;1;;;;;;;17.46;86.02832;932.9528;;;;
2019/07/29 04:09:33;;;;;;;2.3;0.5;;;;;;;17.38;86.69727;933.0359;;;;
2019/07/29 04:12:51;;;;;;;1.7;0.4;;;;;;;17.39;87.5918;933.1379;;;;
2019/07/29 04:16:15;;;;;;;2.8;0.6;;;;;;;17.5;86.83789;933.1401;;;;
2019/07/29 04:19:34;;;;;;;1.5;0.5;;;;;;;17.39;86.86133;933.1289;;;;
2019/07/29 04:22:53;;;;;;;2.3;0.7;;;;;;;17.37;87.64453;933.1707;;;;
2019/07/29 04:26:09;;;;;;;2.1;0.7;;;;;;;17.47;87.6543;933.2302;;;;
2019/07/29 04:29:30;;;;;;;2.9;0.5;;;;;;;17.52;87.50098;933.2242;;;;
2019/07/29 04:32:44;;;;;;;2.1;0.4;;;;;;;17.35;87.05176;933.2072;;;;
2019/07/29 04:36:04;;;;;;;4.3;1.2;;;;;;;17.3;87.4834;933.2558;;;;
2019/07/29 04:39:24;;;;;;;3.4;0.9;;;;;;;17.39;87.36035;933.2141;;;;
2019/07/29 04:42:38;;;;;;;1.8;0.6;;;;;;;17.35;87.14453;933.2667;;;;
2019/07/29 04:45:52;;;;;;;0.8;0.5;;;;;;;17.22;88.10449;933.3181;;;;
2019/07/29 04:49:13;;;;;;;5.8;0.7;;;;;;;17.28;87.88379;933.4222;;;;
2019/07/29 04:52:26;;;;;;;2.2;0.4;;;;;;;17.25;87.02051;933.4391;;;;
2019/07/29 04:55:44;;;;;;;3.4;0.5;;;;;;;17.3;87.33008;933.4756;;;;
2019/07/29 04:59:00;;;;;;;2.3;0.5;;;;;;;17.28;87.25781;933.5201;;;;
2019/07/29 05:02:17;;;;;;;3.1;0.5;;;;;;;17.26;87.14941;933.4974;;;;
2019/07/29 05:05:36;;;;;;;1.4;0.4;;;;;;;17.31;86.96094;933.5471;;;;
2019/07/29 05:08:54;;;;;;;3.8;0.6;;;;;;;17.4;87.52637;933.5351;;;;
2019/07/29 05:12:12;;;;;;;2.1;0.4;;;;;;;17.46;86.40039;933.5275;;;;
2019/07/29 05:15:28;;;;;;;3.8;0.6;;;;;;;17.46;86.91016;933.5235;;;;
2019/07/29 05:18:48;;;;;;;4.4;0.9;;;;;;;17.58;86.70117;933.6284;;;;
2019/07/29 05:22:03;;;;;;;5.3;1.2;;;;;;;17.48;86.34766;933.6622;;;;
2019/07/29 05:25:20;;;;;;;2.2;1;;;;;;;17.5;86.36035;933.6859;;;;
2019/07/29 05:28:43;;;;;;;2;0.6;;;;;;;17.36;87.11133;933.8065;;;;
2019/07/29 05:32:01;;;;;;;1.7;0.6;;;;;;;17.37;87.28711;933.7838;;;;
2019/07/29 05:35:20;;;;;;;2;0.4;;;;;;;17.49;87.74121;933.785;;;;
2019/07/29 05:38:44;;;;;;;2.6;0.6;;;;;;;17.48;87.61035;933.787;;;;
2019/07/29 05:42:05;;;;;;;3.4;0.8;;;;;;;17.45;87.55859;933.8772;;;;
2019/07/29 05:45:33;;;;;;;1;0.4;;;;;;;17.36;87.35449;933.8541;;;;
2019/07/29 05:52:55;;;;;;;2.7;0.7;;;;;;;17.34;86.86426;933.8303;;;;
2019/07/29 05:56:14;;;;;;;1.8;0.6;;;;;;;17.48;87.11328;933.8554;;;;
2019/07/29 05:59:35;;;;;;;2.9;0.5;;;;;;;17.62;85.64063;933.7949;;;;
2019/07/29 06:02:51;;;;;;;4;0.6;;;;;;;17.69;86.65527;933.8113;;;;
2019/07/29 06:06:14;;;;;;;1.7;0.4;;;;;;;17.68;86.58203;933.8521;;;;
2019/07/29 06:09:31;;;;;;;2.6;0.7;;;;;;;17.79;84.95605;933.8936;;;;
2019/07/29 06:13:00;;;;;;;1.8;0.6;;;;;;;17.72;86.22949;933.9154;;;;
2019/07/29 06:16:17;;;;;;;2.9;0.5;;;;;;;17.73;86.23047;933.9016;;;;
2019/07/29 06:19:32;;;;;;;4.6;0.7;;;;;;;17.7;86.27246;933.9481;;;;
2019/07/29 06:22:47;;;;;;;1.8;0.5;;;;;;;17.56;87.41895;933.9436;;;;
2019/07/29 06:26:03;;;;;;;2;0.4;;;;;;;17.54;87.19336;933.9724;;;;
2019/07/29 06:29:29;;;;;;;1.2;0.3;;;;;;;17.57;86.5625;934.0109;;;;
2019/07/29 06:32:53;;;;;;;1;0.3;;;;;;;17.53;87.30762;934.12;;;;
2019/07/29 06:36:24;;;;;;;3.9;0.5;;;;;;;17.57;87.28027;934.0457;;;;
2019/07/29 06:39:40;;;;;;;5;0.6;;;;;;;17.36;88.01563;934.0938;;;;
2019/07/29 06:42:58;;;;;;;3.6;0.6;;;;;;;17.57;87.41895;934.1061;;;;
2019/07/29 06:46:25;;;;;;;3.7;0.6;;;;;;;17.71;87.54102;934.1136;;;;
2019/07/29 06:49:37;;;;;;;2.8;0.8;;;;;;;17.63;87.54785;934.1718;;;;
2019/07/29 06:52:53;;;;;;;2.7;0.7;;;;;;;17.66;87.51855;934.1381;;;;
2019/07/29 06:56:09;;;;;;;5.2;0.8;;;;;;;17.75;86.87695;934.2415;;;;
2019/07/29 06:59:30;;;;;;;1.6;0.6;;;;;;;17.79;86.92969;934.2791;;;;
2019/07/29 07:02:46;;;;;;;3.2;0.9;;;;;;;17.93;86.10938;934.313;;;;
2019/07/29 07:06:04;;;;;;;1.1;0.5;;;;;;;17.96;86.42773;934.3011;;;;
2019/07/29 07:09:28;;;;;;;1.6;0.5;;;;;;;17.93;86.00488;934.322;;;;
2019/07/29 07:12:47;;;;;;;2.4;0.7;;;;;;;18.02;86.15039;934.3666;;;;
2019/07/29 07:16:07;;;;;;;3.3;0.6;;;;;;;18.01;86.23145;934.4012;;;;
2019/07/29 07:19:22;;;;;;;2.8;0.8;;;;;;;17.87;86.28223;934.3984;;;;
2019/07/29 07:22:39;;;;;;;2.4;0.9;;;;;;;17.97;85.97656;934.3645;;;;
2019/07/29 07:26:02;;;;;;;1.8;1;;;;;;;18.03;85.83789;934.3995;;;;
2019/07/29 07:29:22;;;;;;;2.2;1;;;;;;;17.93;86.56152;934.4598;;;;
2019/07/29 07:32:38;;;;;;;4.1;1.2;;;;;;;17.99;86.22559;934.4429;;;;
2019/07/29 07:35:59;;;;;;;2.7;1.3;;;;;;;18.04;86.12988;934.5403;;;;
